Flight Track Log - Related Links

Times and Time Zones

All times are in EDT time to prevent confusion due to time zone crossing. See the UPS1122 flight status page for this flight to view local times or setup timezone preferences in your user account.

Time Position Orientation Groundspeed Altitude Reporting Facility
EDT Latitude Longitude Course Direction KTS MPH feet Rate Location/Type
Wed 06:22:16 AM 41.9458 -72.7025 319° Northwest 147 169 1,700  Level Boston Center
Wed 06:22:52 AM 41.9603 -72.7192 319° Northwest 129 148 2,500 2,103 Climbing Boston Center
Wed 06:23:53 AM 41.9956 -72.7725 312° West 187 215 5,100 2,803 Climbing Boston Center
Wed 06:24:54 AM 42.0433 -72.8342 316° Northwest 243 280 8,200 2,479 Climbing Boston Center
Wed 06:25:54 AM 42.0911 -72.9017 314° West 246 283 10,100 871 Climbing Boston Center
Wed 06:26:58 AM 42.1428 -72.9692 316° Northwest 245 282 10,000 -53 Descending Boston Center
Wed 06:27:47 AM 42.1800 -73.0200 315° West 240 276 10,000  Level Boston Center
Wed 06:28:48 AM 42.2256 -73.0878 312° West 243 280 10,000  Level Boston Center
Wed 06:29:48 AM 42.2772 -73.1556 316° Northwest 243 280 10,000  Level Boston Center
Wed 06:30:49 AM 42.3100 -73.2317 300° West 245 282 10,000  Level Boston Center
Wed 06:31:49 AM 42.3450 -73.3136 300° West 241 277 10,000 -595 Level Boston Center
Wed 06:32:50 AM 42.3778 -73.3900 300° West 239 275 8,800 -1,475 Descending Boston Center
Wed 06:33:51 AM 42.4125 -73.4664 302° West 239 275 7,000 -1,736 Descending Boston Center
Wed 06:34:51 AM 42.4472 -73.5458 301° West 244 281 5,300 -1,587 Descending Boston Center
Wed 06:35:52 AM 42.4797 -73.6253 299° West 242 278 3,800 -1,190 Descending Boston Center
Wed 06:36:52 AM 42.5269 -73.6825 318° Northwest 228 262 2,900 -694 Descending Boston Center
Wed 06:37:53 AM 42.5764 -73.7342 322° Northwest 224 258 2,400 -443 Descending Boston Center
Wed 06:38:54 AM 42.6281 -73.7806 327° Northwest 208 239 2,000 -347 Descending Boston Center
Wed 06:39:54 AM 42.6694 -73.8039 337° Northwest 141 162 1,700 -496 Descending Boston Center
Wed 06:40:55 AM 42.7028 -73.8075 355° North 102 117 1,000 -689 Descending Boston Center

Login

Don't have an account? Register now (free) for customized features, flight alerts, and more!